Time;durP1;ratioP1;P1;durP2;ratioP2;P2;SDS_P1;SDS_P2;PMS_P1;PMS_P2;Temp;Humidity;BMP_temperature;BMP_pressure;BME280_temperature;BME280_humidity;BME280_pressure;Samples;Min_cycle;Max_cycle;Signal;HPM_P1;HPM_P2
2023/07/12 00:01:20;;;;;;;57.10;2.40;;;;;;;;;;4996860;28;20471;-73
2023/07/12 00:03:48;;;;;;;56.87;2.37;;;;;;;;;;4997272;28;20467;-73
2023/07/12 00:06:16;;;;;;;56.77;2.80;;;;;;;;;;4997093;28;20447;-73
2023/07/12 00:08:44;;;;;;;56.83;2.40;;;;;;;;;;4996918;28;20451;-73
2023/07/12 00:11:15;;;;;;;56.97;2.80;;;;;;;;;;4996756;28;20471;-73
2023/07/12 00:13:43;;;;;;;56.97;2.50;;;;;;;;;;4997450;28;20455;-73
2023/07/12 00:16:17;;;;;;;56.80;2.80;;;;;;;;;;4997815;28;20447;-73
2023/07/12 00:18:44;;;;;;;56.70;2.10;;;;;;;;;;4997082;28;20457;-73
2023/07/12 00:21:12;;;;;;;56.97;2.53;;;;;;;;;;4996782;28;20463;-73
2023/07/12 00:23:39;;;;;;;56.90;2.50;;;;;;;;;;4997345;28;20459;-73
2023/07/12 00:26:17;;;;;;;57.07;2.50;;;;;;;;;;4996918;28;20463;-73
2023/07/12 00:28:45;;;;;;;56.77;2.33;;;;;;;;;;4997104;28;20459;-72
2023/07/12 00:31:12;;;;;;;56.60;2.33;;;;;;;;;;4996468;28;20466;-73
2023/07/12 00:33:39;;;;;;;56.70;2.17;;;;;;;;;;4997309;28;20459;-73
2023/07/12 00:36:07;;;;;;;56.97;2.50;;;;;;;;;;4996930;28;20458;-73
2023/07/12 00:38:34;;;;;;;56.67;2.40;;;;;;;;;;4996477;28;20489;-73
2023/07/12 00:41:06;;;;;;;57.10;2.70;;;;;;;;;;4996305;28;20478;-72
2023/07/12 00:43:38;;;;;;;56.97;2.20;;;;;;;;;;4997387;28;20459;-73
2023/07/12 00:46:11;;;;;;;56.90;2.30;;;;;;;;;;4997501;28;20966;-73
2023/07/12 00:48:39;;;;;;;56.80;2.10;;;;;;;;;;4997516;28;20962;-73
2023/07/12 00:51:16;;;;;;;57.40;2.60;;;;;;;;;;4997451;28;20467;-73
2023/07/12 00:53:43;;;;;;;57.33;2.53;;;;;;;;;;4997688;28;20470;-73
2023/07/12 00:56:13;;;;;;;56.80;2.10;;;;;;;;;;4996958;28;20451;-73
2023/07/12 00:58:45;;;;;;;56.47;2.07;;;;;;;;;;4998089;28;20487;-72
2023/07/12 01:01:13;;;;;;;56.97;2.33;;;;;;;;;;4996306;28;21002;-73
2023/07/12 01:03:41;;;;;;;56.73;2.00;;;;;;;;;;4997237;28;20455;-73
2023/07/12 01:06:10;;;;;;;56.67;2.20;;;;;;;;;;4996685;28;20463;-73
2023/07/12 01:08:40;;;;;;;57.50;2.10;;;;;;;;;;4996484;28;20486;-72
2023/07/12 01:11:07;;;;;;;56.67;2.10;;;;;;;;;;4993668;28;20506;-72
2023/07/12 01:13:35;;;;;;;57.70;2.80;;;;;;;;;;4995861;28;20455;-72
2023/07/12 01:16:04;;;;;;;56.60;2.10;;;;;;;;;;4995647;28;20455;-71
2023/07/12 01:18:31;;;;;;;56.67;2.20;;;;;;;;;;4996115;28;20495;-72
2023/07/12 01:21:10;;;;;;;56.67;2.13;;;;;;;;;;4996324;28;20478;-71
2023/07/12 01:23:37;;;;;;;56.47;2.10;;;;;;;;;;4997285;28;20965;-72
2023/07/12 01:26:18;;;;;;;56.67;2.10;;;;;;;;;;4996963;28;20456;-73
2023/07/12 01:28:46;;;;;;;56.80;2.00;;;;;;;;;;4997962;28;20451;-72
2023/07/12 01:31:13;;;;;;;56.83;2.07;;;;;;;;;;4997195;28;20481;-72
2023/07/12 01:33:41;;;;;;;56.57;1.97;;;;;;;;;;4997667;28;20458;-72
2023/07/12 01:36:09;;;;;;;56.60;2.20;;;;;;;;;;4997088;28;20459;-72
2023/07/12 01:38:36;;;;;;;56.57;2.50;;;;;;;;;;4997932;28;20846;-72
2023/07/12 01:41:03;;;;;;;56.80;2.20;;;;;;;;;;4997273;28;20483;-72
2023/07/12 01:43:31;;;;;;;56.63;2.17;;;;;;;;;;4996769;28;20465;-71
2023/07/12 01:45:58;;;;;;;56.77;2.00;;;;;;;;;;4996994;28;20451;-72
2023/07/12 01:48:25;;;;;;;56.77;2.10;;;;;;;;;;4997245;28;20451;-71
2023/07/12 01:50:52;;;;;;;57.00;2.30;;;;;;;;;;4996864;28;20851;-73
2023/07/12 01:53:20;;;;;;;56.90;2.20;;;;;;;;;;4998176;28;20459;-72
2023/07/12 01:55:47;;;;;;;56.97;2.27;;;;;;;;;;4997774;28;20922;-72
2023/07/12 01:58:14;;;;;;;56.70;2.40;;;;;;;;;;4997807;28;20494;-73
2023/07/12 02:00:42;;;;;;;57.00;2.43;;;;;;;;;;4996802;28;20454;-73
2023/07/12 02:03:09;;;;;;;56.90;2.20;;;;;;;;;;4998039;28;20459;-72
2023/07/12 02:05:36;;;;;;;56.57;2.13;;;;;;;;;;4998066;28;20455;-73
2023/07/12 02:08:03;;;;;;;56.80;2.30;;;;;;;;;;4998490;28;20455;-73
2023/07/12 02:10:32;;;;;;;56.63;2.60;;;;;;;;;;4996863;28;20451;-73
2023/07/12 02:12:59;;;;;;;56.87;2.20;;;;;;;;;;4997647;28;20461;-73
2023/07/12 02:15:26;;;;;;;56.83;2.23;;;;;;;;;;4997857;28;20969;-73
2023/07/12 02:17:53;;;;;;;56.87;2.40;;;;;;;;;;4997327;28;20831;-73
2023/07/12 02:20:20;;;;;;;56.57;2.00;;;;;;;;;;4997277;28;20455;-73
2023/07/12 02:22:48;;;;;;;57.00;2.30;;;;;;;;;;4997556;28;20471;-73
2023/07/12 02:25:16;;;;;;;57.00;2.30;;;;;;;;;;4998000;28;20459;-73
2023/07/12 02:27:44;;;;;;;58.47;2.73;;;;;;;;;;4997636;28;20451;-73
2023/07/12 02:30:13;;;;;;;56.90;2.10;;;;;;;;;;4998028;28;20458;-73
2023/07/12 02:32:40;;;;;;;56.70;2.30;;;;;;;;;;4998545;28;20474;-73
2023/07/12 02:35:07;;;;;;;56.83;2.30;;;;;;;;;;4999003;28;20465;-73
2023/07/12 02:37:35;;;;;;;57.10;2.60;;;;;;;;;;4997892;28;20487;-71
2023/07/12 02:40:02;;;;;;;56.73;2.47;;;;;;;;;;4997928;28;20455;-72
2023/07/12 02:42:29;;;;;;;56.80;2.13;;;;;;;;;;4998085;28;20482;-73
2023/07/12 02:44:58;;;;;;;56.83;2.40;;;;;;;;;;4998909;28;20469;-73
2023/07/12 02:47:25;;;;;;;56.90;2.40;;;;;;;;;;4998332;28;20463;-73
2023/07/12 02:49:52;;;;;;;56.87;2.20;;;;;;;;;;4998147;28;20943;-73
2023/07/12 02:52:19;;;;;;;57.20;2.53;;;;;;;;;;4998151;28;20474;-73
2023/07/12 02:54:46;;;;;;;57.40;2.50;;;;;;;;;;4997865;28;20454;-73
2023/07/12 02:57:14;;;;;;;56.77;2.30;;;;;;;;;;4998338;28;20465;-73
2023/07/12 02:59:41;;;;;;;57.07;2.60;;;;;;;;;;4997634;28;20459;-73
2023/07/12 03:02:11;;;;;;;56.77;2.50;;;;;;;;;;5001507;28;20542;-73
2023/07/12 03:04:38;;;;;;;56.87;2.10;;;;;;;;;;5002625;28;20482;-73
2023/07/12 03:07:05;;;;;;;56.87;2.33;;;;;;;;;;5002640;28;20944;-74
2023/07/12 03:09:32;;;;;;;56.70;2.60;;;;;;;;;;5002004;28;20461;-73
2023/07/12 03:11:59;;;;;;;56.80;2.30;;;;;;;;;;5001315;28;20467;-72
2023/07/12 03:14:27;;;;;;;57.17;2.90;;;;;;;;;;5001149;28;20461;-72
2023/07/12 03:16:54;;;;;;;57.10;2.50;;;;;;;;;;5001955;28;20461;-73
2023/07/12 03:19:22;;;;;;;57.00;2.60;;;;;;;;;;5001804;28;20501;-73
2023/07/12 03:21:49;;;;;;;56.70;2.40;;;;;;;;;;5001341;28;20470;-72
2023/07/12 03:24:17;;;;;;;57.00;2.10;;;;;;;;;;5001159;28;20969;-73
2023/07/12 03:26:44;;;;;;;56.77;2.20;;;;;;;;;;5002204;28;20458;-73
2023/07/12 03:29:11;;;;;;;56.70;2.20;;;;;;;;;;5002010;28;20451;-72
2023/07/12 03:31:38;;;;;;;56.57;2.20;;;;;;;;;;5001111;28;20473;-73
2023/07/12 03:34:05;;;;;;;56.67;2.37;;;;;;;;;;5001750;28;20483;-73
2023/07/12 03:36:34;;;;;;;56.97;2.70;;;;;;;;;;5001271;28;20466;-72
2023/07/12 03:39:01;;;;;;;56.87;2.50;;;;;;;;;;5001612;28;20494;-73
2023/07/12 03:41:28;;;;;;;56.97;2.33;;;;;;;;;;5001183;28;20498;-72
2023/07/12 03:43:55;;;;;;;57.30;2.60;;;;;;;;;;5000872;28;20475;-73
2023/07/12 03:46:22;;;;;;;57.17;2.60;;;;;;;;;;5001609;28;20451;-73
2023/07/12 03:48:49;;;;;;;57.00;2.50;;;;;;;;;;5001003;28;20515;-73
2023/07/12 03:51:18;;;;;;;56.77;2.27;;;;;;;;;;5000432;28;20478;-72
2023/07/12 03:53:46;;;;;;;56.83;2.20;;;;;;;;;;5000449;28;20967;-72
2023/07/12 03:56:13;;;;;;;56.77;2.20;;;;;;;;;;5001416;28;20447;-73
2023/07/12 03:58:41;;;;;;;57.17;3.00;;;;;;;;;;5001411;28;20487;-72
2023/07/12 04:01:11;;;;;;;56.70;2.30;;;;;;;;;;5000894;28;20546;-73
2023/07/12 04:03:39;;;;;;;56.80;2.43;;;;;;;;;;5001753;28;20466;-73
2023/07/12 04:06:07;;;;;;;56.67;2.40;;;;;;;;;;5001295;28;20459;-73
2023/07/12 04:08:34;;;;;;;56.47;2.30;;;;;;;;;;5002208;28;20483;-73
2023/07/12 04:11:03;;;;;;;56.80;2.13;;;;;;;;;;5001013;28;20477;-72
2023/07/12 04:13:31;;;;;;;57.20;2.70;;;;;;;;;;5000553;28;20462;-73
2023/07/12 04:15:59;;;;;;;57.33;2.87;;;;;;;;;;5001347;28;20455;-73
2023/07/12 04:18:27;;;;;;;57.10;2.90;;;;;;;;;;5001211;28;20486;-73
2023/07/12 04:20:54;;;;;;;56.67;2.20;;;;;;;;;;5000926;28;20469;-73
2023/07/12 04:23:21;;;;;;;56.57;2.20;;;;;;;;;;5000808;28;20498;-73
2023/07/12 04:25:48;;;;;;;56.70;2.23;;;;;;;;;;5000556;28;20470;-73
2023/07/12 04:28:17;;;;;;;56.70;2.30;;;;;;;;;;5000959;28;20447;-73
2023/07/12 04:30:44;;;;;;;56.67;2.37;;;;;;;;;;5000144;28;20454;-73
2023/07/12 04:33:11;;;;;;;56.73;2.37;;;;;;;;;;5001052;28;20455;-73
2023/07/12 04:35:39;;;;;;;56.77;2.23;;;;;;;;;;5001324;28;20451;-72
2023/07/12 04:38:06;;;;;;;56.57;2.30;;;;;;;;;;5002128;28;20491;-73
2023/07/12 04:40:33;;;;;;;56.87;2.40;;;;;;;;;;5002166;28;20455;-73
2023/07/12 04:43:00;;;;;;;56.70;2.80;;;;;;;;;;5001922;28;20455;-73
2023/07/12 04:45:29;;;;;;;56.57;2.40;;;;;;;;;;5002605;28;20935;-73
2023/07/12 04:47:56;;;;;;;56.67;2.37;;;;;;;;;;5002576;28;20939;-72
2023/07/12 04:50:23;;;;;;;56.57;2.63;;;;;;;;;;5001864;28;20462;-73
2023/07/12 04:52:50;;;;;;;56.97;2.40;;;;;;;;;;5001481;28;20469;-72
2023/07/12 04:55:21;;;;;;;56.77;2.50;;;;;;;;;;5001875;28;20458;-73
2023/07/12 04:57:49;;;;;;;57.17;2.50;;;;;;;;;;5001204;28;20946;-73
2023/07/12 05:00:17;;;;;;;56.90;2.80;;;;;;;;;;5002006;28;20465;-73
2023/07/12 05:02:46;;;;;;;56.67;2.50;;;;;;;;;;5001609;28;20479;-73
2023/07/12 05:05:13;;;;;;;57.10;2.90;;;;;;;;;;5001961;28;20463;-73
2023/07/12 05:07:41;;;;;;;56.63;2.27;;;;;;;;;;5000994;28;20462;-73
2023/07/12 05:10:09;;;;;;;56.37;2.20;;;;;;;;;;5001114;28;20463;-72
2023/07/12 05:12:36;;;;;;;56.37;2.10;;;;;;;;;;5000127;28;20471;-73
2023/07/12 05:15:04;;;;;;;56.87;2.40;;;;;;;;;;5000143;28;20459;-73
2023/07/12 05:17:31;;;;;;;57.00;2.90;;;;;;;;;;4999972;28;20463;-72
2023/07/12 05:20:00;;;;;;;56.87;2.37;;;;;;;;;;5000760;28;20866;-73
2023/07/12 05:22:27;;;;;;;56.77;2.33;;;;;;;;;;5000074;28;20480;-72
2023/07/12 05:24:54;;;;;;;56.73;2.43;;;;;;;;;;5000629;28;20898;-73
2023/07/12 05:27:21;;;;;;;56.80;2.40;;;;;;;;;;5000440;28;20451;-72
2023/07/12 05:29:48;;;;;;;56.37;2.17;;;;;;;;;;5001451;28;20457;-72
2023/07/12 05:32:15;;;;;;;56.90;2.30;;;;;;;;;;5003389;28;20481;-72
2023/07/12 05:34:42;;;;;;;56.80;2.40;;;;;;;;;;5002769;28;20454;-72
2023/07/12 05:37:12;;;;;;;57.97;3.07;;;;;;;;;;5002871;28;20455;-72
2023/07/12 05:39:40;;;;;;;56.87;2.40;;;;;;;;;;5004370;28;20495;-73
2023/07/12 05:42:08;;;;;;;56.50;2.57;;;;;;;;;;5003429;28;20534;-72
2023/07/12 05:44:35;;;;;;;56.60;2.27;;;;;;;;;;5003137;28;20469;-71
2023/07/12 05:47:02;;;;;;;56.47;2.40;;;;;;;;;;5004098;28;20462;-71
2023/07/12 05:49:29;;;;;;;56.77;2.17;;;;;;;;;;5003429;28;20451;-72
2023/07/12 05:51:56;;;;;;;56.43;2.37;;;;;;;;;;5003111;28;20507;-72
2023/07/12 05:54:25;;;;;;;56.47;2.40;;;;;;;;;;5002486;28;20542;-72
2023/07/12 05:56:52;;;;;;;56.80;2.00;;;;;;;;;;5002570;28;20458;-72
2023/07/12 05:59:20;;;;;;;57.60;2.60;;;;;;;;;;5002536;28;20589;-71
2023/07/12 06:01:47;;;;;;;57.10;2.30;;;;;;;;;;5001949;28;21053;-71
2023/07/12 06:04:14;;;;;;;57.17;2.17;;;;;;;;;;5001905;28;20486;-71
2023/07/12 06:06:41;;;;;;;56.47;2.30;;;;;;;;;;5002079;28;20447;-72
2023/07/12 06:09:09;;;;;;;56.70;2.17;;;;;;;;;;5001972;28;20451;-71
2023/07/12 06:11:37;;;;;;;56.90;2.63;;;;;;;;;;5001336;28;20481;-72
2023/07/12 06:14:04;;;;;;;57.20;3.20;;;;;;;;;;5001807;28;20455;-72
2023/07/12 06:16:31;;;;;;;57.13;2.60;;;;;;;;;;4996767;28;20451;-70
2023/07/12 06:18:58;;;;;;;56.60;2.10;;;;;;;;;;4994964;28;20486;-70
2023/07/12 06:21:25;;;;;;;56.90;2.20;;;;;;;;;;4995094;28;20485;-70
2023/07/12 06:23:57;;;;;;;57.17;2.40;;;;;;;;;;4995632;28;20458;-70
2023/07/12 06:26:24;;;;;;;56.60;2.00;;;;;;;;;;4994773;28;20969;-70
2023/07/12 06:28:53;;;;;;;57.30;2.43;;;;;;;;;;4994863;28;20905;-70
2023/07/12 06:31:20;;;;;;;57.20;2.50;;;;;;;;;;4994453;28;20471;-70
2023/07/12 06:33:47;;;;;;;56.67;2.30;;;;;;;;;;4994727;28;20455;-70
2023/07/12 06:36:14;;;;;;;57.20;2.60;;;;;;;;;;4995377;28;20451;-70
2023/07/12 06:38:41;;;;;;;56.97;2.37;;;;;;;;;;4997060;28;20490;-70
2023/07/12 06:41:08;;;;;;;56.70;2.50;;;;;;;;;;4997188;28;20467;-70
2023/07/12 06:43:35;;;;;;;56.67;2.53;;;;;;;;;;4997438;28;20847;-70
2023/07/12 06:46:04;;;;;;;56.47;2.20;;;;;;;;;;4997401;28;20454;-70
2023/07/12 06:48:31;;;;;;;56.80;2.30;;;;;;;;;;4997856;28;20455;-70
2023/07/12 06:50:58;;;;;;;56.90;2.37;;;;;;;;;;4997197;28;20471;-70
2023/07/12 06:53:26;;;;;;;57.00;2.47;;;;;;;;;;4996789;28;20459;-70
2023/07/12 06:55:53;;;;;;;56.67;2.20;;;;;;;;;;4996967;28;20878;-71
2023/07/12 06:58:20;;;;;;;56.60;2.27;;;;;;;;;;4998175;28;20450;-70
2023/07/12 07:00:47;;;;;;;57.27;3.53;;;;;;;;;;4998035;28;20463;-71
2023/07/12 07:03:16;;;;;;;56.37;2.03;;;;;;;;;;4998126;28;20461;-70
2023/07/12 07:05:45;;;;;;;57.03;2.67;;;;;;;;;;4997494;28;20554;-70
2023/07/12 07:08:12;;;;;;;57.73;2.37;;;;;;;;;;4997802;28;20493;-70
2023/07/12 07:10:39;;;;;;;57.17;2.90;;;;;;;;;;4997638;28;20455;-70
2023/07/12 07:13:06;;;;;;;56.20;2.00;;;;;;;;;;4998092;28;20450;-70
2023/07/12 07:15:34;;;;;;;56.27;2.07;;;;;;;;;;4998695;28;20458;-70
2023/07/12 07:18:01;;;;;;;62.07;2.87;;;;;;;;;;4998703;28;20451;-70
2023/07/12 07:20:29;;;;;;;56.27;1.90;;;;;;;;;;4996881;28;20498;-71
2023/07/12 07:22:56;;;;;;;56.60;2.00;;;;;;;;;;4997635;28;20481;-70
2023/07/12 07:25:25;;;;;;;56.07;1.90;;;;;;;;;;4997773;28;20461;-70
2023/07/12 07:27:52;;;;;;;56.80;2.20;;;;;;;;;;4998521;28;20455;-70
2023/07/12 07:30:19;;;;;;;56.87;2.40;;;;;;;;;;4996756;28;20451;-70
2023/07/12 07:32:46;;;;;;;57.00;2.30;;;;;;;;;;4998134;28;20483;-70
2023/07/12 07:35:14;;;;;;;56.60;1.97;;;;;;;;;;4998006;28;21018;-70
2023/07/12 07:37:43;;;;;;;57.07;2.47;;;;;;;;;;4995954;28;20466;-71
2023/07/12 07:40:10;;;;;;;56.73;2.00;;;;;;;;;;4993994;28;20478;-71
2023/07/12 07:42:37;;;;;;;56.23;1.90;;;;;;;;;;4994647;28;20552;-71
2023/07/12 07:45:05;;;;;;;57.37;2.97;;;;;;;;;;4994557;28;20466;-71
2023/07/12 07:47:33;;;;;;;56.47;2.27;;;;;;;;;;4993033;28;20451;-71
2023/07/12 07:50:00;;;;;;;56.80;2.23;;;;;;;;;;4994433;28;20455;-70
2023/07/12 07:52:28;;;;;;;56.80;1.90;;;;;;;;;;4994224;28;20498;-70
2023/07/12 07:54:56;;;;;;;56.77;2.77;;;;;;;;;;4995078;28;20818;-71
2023/07/12 07:57:23;;;;;;;56.67;2.20;;;;;;;;;;4994584;28;20628;-71
2023/07/12 07:59:51;;;;;;;56.53;2.50;;;;;;;;;;4994269;28;20491;-69
2023/07/12 08:02:18;;;;;;;56.67;2.50;;;;;;;;;;4994348;28;20474;-70
2023/07/12 08:04:45;;;;;;;56.27;2.20;;;;;;;;;;4994692;28;20454;-70
2023/07/12 08:07:13;;;;;;;55.83;2.00;;;;;;;;;;4994486;28;20459;-70
2023/07/12 08:09:41;;;;;;;56.40;2.50;;;;;;;;;;4994365;28;20447;-71
2023/07/12 08:12:10;;;;;;;56.60;2.27;;;;;;;;;;4993990;28;20571;-70
2023/07/12 08:14:37;;;;;;;56.70;2.07;;;;;;;;;;4994143;28;20469;-71
2023/07/12 08:17:04;;;;;;;56.43;2.00;;;;;;;;;;4993887;28;20539;-70
2023/07/12 08:19:31;;;;;;;56.23;1.90;;;;;;;;;;4994022;28;20479;-70
2023/07/12 08:21:58;;;;;;;56.27;1.90;;;;;;;;;;4993472;28;20478;-70
2023/07/12 08:24:25;;;;;;;56.17;2.13;;;;;;;;;;4994349;28;20454;-71
2023/07/12 08:26:52;;;;;;;56.73;1.80;;;;;;;;;;4993269;28;20463;-70
2023/07/12 08:29:21;;;;;;;56.37;1.90;;;;;;;;;;4993893;28;20443;-71
2023/07/12 08:31:48;;;;;;;56.47;2.47;;;;;;;;;;4993362;28;20479;-71
2023/07/12 08:34:15;;;;;;;56.13;2.07;;;;;;;;;;4993642;28;20535;-71
2023/07/12 08:36:42;;;;;;;56.70;2.00;;;;;;;;;;4994209;28;20447;-71
2023/07/12 08:39:09;;;;;;;56.50;2.20;;;;;;;;;;4993507;28;20482;-71
2023/07/12 08:41:37;;;;;;;56.50;1.93;;;;;;;;;;4993021;28;20846;-71
2023/07/12 08:44:06;;;;;;;56.70;2.10;;;;;;;;;;4993516;28;20462;-70
2023/07/12 08:46:37;;;;;;;56.00;1.90;;;;;;;;;;4993368;28;20454;-70
2023/07/12 08:49:06;;;;;;;56.47;1.90;;;;;;;;;;4993286;28;20451;-70
2023/07/12 08:51:35;;;;;;;55.77;1.77;;;;;;;;;;4993062;28;20847;-70
2023/07/12 08:54:02;;;;;;;55.83;1.80;;;;;;;;;;4993074;28;20494;-70
2023/07/12 08:56:29;;;;;;;56.97;2.13;;;;;;;;;;4993146;28;20451;-70
2023/07/12 08:58:56;;;;;;;56.83;2.17;;;;;;;;;;4992407;28;20458;-70
2023/07/12 09:01:35;;;;;;;56.67;2.00;;;;;;;;;;4992643;28;20479;-71
2023/07/12 09:04:14;;;;;;;56.47;1.80;;;;;;;;;;4993193;28;20454;-70
2023/07/12 09:06:41;;;;;;;56.37;1.73;;;;;;;;;;4992747;28;20943;-71
2023/07/12 09:09:10;;;;;;;56.80;2.17;;;;;;;;;;4993066;28;20458;-71
2023/07/12 09:11:37;;;;;;;56.57;1.93;;;;;;;;;;4992481;28;20482;-71
2023/07/12 09:14:04;;;;;;;56.27;2.50;;;;;;;;;;4992656;28;20451;-71
2023/07/12 09:16:32;;;;;;;56.27;2.20;;;;;;;;;;4992728;28;20943;-71
2023/07/12 09:19:01;;;;;;;56.57;2.30;;;;;;;;;;4992874;28;20454;-70
2023/07/12 09:21:31;;;;;;;56.50;1.90;;;;;;;;;;4992323;28;20520;-71
2023/07/12 09:24:01;;;;;;;56.30;2.00;;;;;;;;;;4992618;28;20939;-71
2023/07/12 09:26:29;;;;;;;56.17;1.70;;;;;;;;;;4992510;28;20455;-71
2023/07/12 09:28:57;;;;;;;56.50;2.27;;;;;;;;;;4992576;28;20453;-71
2023/07/12 09:31:29;;;;;;;56.90;2.40;;;;;;;;;;4992257;28;20473;-71
2023/07/12 09:33:58;;;;;;;55.67;1.97;;;;;;;;;;4992694;28;20858;-71
2023/07/12 09:36:26;;;;;;;56.47;1.73;;;;;;;;;;4992310;28;20457;-71
2023/07/12 09:39:00;;;;;;;56.07;1.97;;;;;;;;;;4992261;28;20529;-71
2023/07/12 09:41:28;;;;;;;56.50;1.90;;;;;;;;;;4992223;28;20516;-71
2023/07/12 09:43:57;;;;;;;56.60;1.90;;;;;;;;;;4992108;28;20465;-71
2023/07/12 09:46:29;;;;;;;57.30;2.30;;;;;;;;;;4992295;28;20482;-70
2023/07/12 09:49:00;;;;;;;56.27;1.97;;;;;;;;;;4992407;28;20450;-70
2023/07/12 09:51:34;;;;;;;56.90;2.40;;;;;;;;;;4991899;28;21005;-71
2023/07/12 09:54:07;;;;;;;56.40;2.23;;;;;;;;;;4992837;28;20464;-70
2023/07/12 09:56:38;;;;;;;56.03;1.70;;;;;;;;;;4992300;28;20506;-70
2023/07/12 09:59:12;;;;;;;57.13;2.17;;;;;;;;;;4992463;28;20451;-70
2023/07/12 10:01:41;;;;;;;56.80;2.43;;;;;;;;;;4991929;28;20471;-70
2023/07/12 10:04:16;;;;;;;57.23;2.57;;;;;;;;;;4992209;28;20439;-70
2023/07/12 10:06:45;;;;;;;55.67;1.90;;;;;;;;;;4992499;28;20442;-71
2023/07/12 10:09:16;;;;;;;56.60;2.00;;;;;;;;;;4992403;28;20447;-71
2023/07/12 10:11:47;;;;;;;55.53;1.70;;;;;;;;;;4991160;28;20459;-70
2023/07/12 10:14:16;;;;;;;56.50;2.10;;;;;;;;;;4991948;28;20482;-71
2023/07/12 10:16:46;;;;;;;56.03;1.80;;;;;;;;;;4992096;28;20443;-71
2023/07/12 10:19:16;;;;;;;56.13;1.70;;;;;;;;;;4992064;28;20798;-71
2023/07/12 10:21:44;;;;;;;56.60;2.23;;;;;;;;;;4991688;28;20581;-70
2023/07/12 10:24:14;;;;;;;56.37;1.90;;;;;;;;;;4992059;28;20457;-70
2023/07/12 10:26:42;;;;;;;56.27;1.90;;;;;;;;;;4991382;28;20455;-70
2023/07/12 10:29:12;;;;;;;56.20;2.10;;;;;;;;;;4991854;28;20824;-70
2023/07/12 10:31:43;;;;;;;56.07;1.80;;;;;;;;;;4991317;28;20995;-71
2023/07/12 10:34:16;;;;;;;56.10;1.80;;;;;;;;;;4984233;28;20458;-71
2023/07/12 10:36:44;;;;;;;56.20;2.10;;;;;;;;;;4991995;28;20454;-71
2023/07/12 10:39:12;;;;;;;55.87;2.00;;;;;;;;;;4991653;28;20454;-71
2023/07/12 10:41:44;;;;;;;56.77;1.90;;;;;;;;;;4991317;28;20490;-71
2023/07/12 10:44:16;;;;;;;55.90;2.13;;;;;;;;;;4991484;28;20967;-71
2023/07/12 10:46:45;;;;;;;56.10;2.07;;;;;;;;;;4991568;28;20455;-71
2023/07/12 10:49:14;;;;;;;55.60;1.67;;;;;;;;;;4991652;28;20459;-70
2023/07/12 10:51:42;;;;;;;55.37;1.80;;;;;;;;;;4991208;28;20467;-69
2023/07/12 10:54:33;;;;;;;55.90;2.00;;;;;;;;;;4991561;28;20977;-69
2023/07/12 10:57:06;;;;;;;55.10;1.50;;;;;;;;;;4991776;28;20773;-70
2023/07/12 10:59:45;;;;;;;55.10;1.77;;;;;;;;;;4991594;28;20443;-70
2023/07/12 11:02:21;;;;;;;55.40;1.93;;;;;;;;;;4991934;28;20566;-70
2023/07/12 11:04:49;;;;;;;55.30;1.90;;;;;;;;;;4991690;28;20466;-70
2023/07/12 11:07:36;;;;;;;55.40;1.47;;;;;;;;;;4991431;28;20462;-70
2023/07/12 11:10:05;;;;;;;55.57;1.93;;;;;;;;;;4991437;28;20529;-70
2023/07/12 11:12:38;;;;;;;55.57;1.60;;;;;;;;;;4991316;28;20475;-70
2023/07/12 11:15:18;;;;;;;55.90;2.27;;;;;;;;;;4991423;28;20479;-69
2023/07/12 11:17:50;;;;;;;55.60;1.97;;;;;;;;;;4991554;28;20458;-70
2023/07/12 11:20:22;;;;;;;55.77;1.93;;;;;;;;;;4991266;28;20855;-68
2023/07/12 11:22:51;;;;;;;55.93;2.13;;;;;;;;;;4994200;28;20983;-70
2023/07/12 11:25:24;;;;;;;55.57;1.80;;;;;;;;;;4994701;28;20513;-69
2023/07/12 11:27:58;;;;;;;55.70;1.70;;;;;;;;;;4995039;28;20502;-72
2023/07/12 11:30:37;;;;;;;55.77;1.73;;;;;;;;;;4994955;28;20442;-70
2023/07/12 11:33:10;;;;;;;55.50;1.50;;;;;;;;;;4994873;28;20960;-70
2023/07/12 11:35:43;;;;;;;56.60;2.00;;;;;;;;;;4994351;28;20455;-70
2023/07/12 11:38:14;;;;;;;55.40;1.60;;;;;;;;;;4994888;28;20543;-70
2023/07/12 11:40:41;;;;;;;55.40;2.43;;;;;;;;;;4994202;28;20486;-70
2023/07/12 11:43:27;;;;;;;55.17;1.87;;;;;;;;;;4994690;28;20451;-70
2023/07/12 11:45:57;;;;;;;55.37;2.10;;;;;;;;;;4994347;28;20451;-70
2023/07/12 11:48:25;;;;;;;55.17;1.70;;;;;;;;;;4994803;28;20450;-70
2023/07/12 11:50:52;;;;;;;55.50;2.00;;;;;;;;;;4994185;28;20503;-70
2023/07/12 11:53:20;;;;;;;55.57;2.10;;;;;;;;;;4994445;28;20443;-70
2023/07/12 11:55:48;;;;;;;55.00;1.70;;;;;;;;;;4994541;28;20547;-70
2023/07/12 11:58:16;;;;;;;55.80;2.33;;;;;;;;;;4994070;28;20772;-70
2023/07/12 12:00:43;;;;;;;55.37;1.90;;;;;;;;;;4993600;28;20479;-71
2023/07/12 12:03:14;;;;;;;55.20;2.47;;;;;;;;;;4994391;28;20451;-70
2023/07/12 12:05:41;;;;;;;55.30;1.93;;;;;;;;;;4994424;28;20828;-70
2023/07/12 12:08:11;;;;;;;55.00;1.73;;;;;;;;;;4994279;28;20490;-70
2023/07/12 12:10:40;;;;;;;56.03;1.80;;;;;;;;;;4994126;28;20443;-70
2023/07/12 12:13:16;;;;;;;55.60;1.83;;;;;;;;;;4993920;28;20833;-69
2023/07/12 12:15:46;;;;;;;55.67;1.83;;;;;;;;;;4994174;28;20458;-70
2023/07/12 12:18:17;;;;;;;55.47;1.50;;;;;;;;;;4994039;28;20455;-70
2023/07/12 12:20:52;;;;;;;55.47;1.50;;;;;;;;;;4993774;28;20862;-70
2023/07/12 12:23:22;;;;;;;55.63;1.60;;;;;;;;;;4993908;28;20454;-70
2023/07/12 12:25:50;;;;;;;56.13;2.23;;;;;;;;;;4993185;28;20463;-70
2023/07/12 12:28:25;;;;;;;55.20;1.67;;;;;;;;;;4993559;28;20459;-70
2023/07/12 12:30:58;;;;;;;55.40;2.20;;;;;;;;;;4993205;28;20493;-70
2023/07/12 12:33:27;;;;;;;55.00;1.77;;;;;;;;;;4992842;28;20833;-71
2023/07/12 12:35:58;;;;;;;55.40;1.97;;;;;;;;;;4993505;28;20455;-71
2023/07/12 12:38:28;;;;;;;55.67;2.73;;;;;;;;;;4993569;28;20943;-71
2023/07/12 12:40:57;;;;;;;55.57;2.03;;;;;;;;;;4991611;28;20490;-71
2023/07/12 12:43:25;;;;;;;54.90;2.07;;;;;;;;;;4993489;28;20554;-71
2023/07/12 12:45:52;;;;;;;54.87;1.73;;;;;;;;;;4993400;28;20455;-71
2023/07/12 12:48:25;;;;;;;55.20;2.30;;;;;;;;;;4993309;28;20451;-71
2023/07/12 12:50:55;;;;;;;55.33;2.40;;;;;;;;;;4993114;28;20998;-70
2023/07/12 12:53:22;;;;;;;55.60;2.10;;;;;;;;;;4993230;28;20466;-70
2023/07/12 12:55:49;;;;;;;55.27;2.03;;;;;;;;;;4993060;28;20451;-71
2023/07/12 12:58:17;;;;;;;55.27;1.90;;;;;;;;;;4993079;28;20939;-71
2023/07/12 13:00:44;;;;;;;54.87;1.73;;;;;;;;;;4992708;28;21033;-70
2023/07/12 13:03:13;;;;;;;55.30;2.03;;;;;;;;;;4993101;28;20454;-70
2023/07/12 13:05:40;;;;;;;54.97;1.87;;;;;;;;;;4993143;28;20874;-71
2023/07/12 13:08:16;;;;;;;54.77;1.53;;;;;;;;;;4993167;28;20451;-71
2023/07/12 13:10:43;;;;;;;55.23;2.50;;;;;;;;;;4992954;28;20505;-71
2023/07/12 13:13:14;;;;;;;54.90;1.80;;;;;;;;;;4992949;28;20451;-71
2023/07/12 13:15:41;;;;;;;55.60;2.10;;;;;;;;;;4992752;28;20443;-70
2023/07/12 13:18:10;;;;;;;57.47;2.43;;;;;;;;;;4993317;28;20458;-70
2023/07/12 13:20:37;;;;;;;55.60;2.03;;;;;;;;;;4992470;28;20497;-70
2023/07/12 13:23:04;;;;;;;55.80;2.10;;;;;;;;;;4992909;28;20446;-70
2023/07/12 13:25:34;;;;;;;55.70;2.20;;;;;;;;;;4992769;28;20450;-70
2023/07/12 13:28:01;;;;;;;55.67;1.93;;;;;;;;;;4990794;28;20455;-70
2023/07/12 13:30:29;;;;;;;55.60;1.90;;;;;;;;;;4991191;28;20816;-70
2023/07/12 13:32:56;;;;;;;55.73;2.10;;;;;;;;;;4991454;28;20459;-70
2023/07/12 13:35:24;;;;;;;55.63;2.00;;;;;;;;;;4991456;28;20454;-70
2023/07/12 13:37:52;;;;;;;55.27;1.80;;;;;;;;;;4991217;28;20453;-70
2023/07/12 13:40:19;;;;;;;55.80;2.27;;;;;;;;;;4990796;28;20447;-70
2023/07/12 13:42:48;;;;;;;56.10;2.27;;;;;;;;;;4991576;28;20999;-70
2023/07/12 13:45:16;;;;;;;55.67;1.80;;;;;;;;;;4992278;28;20470;-70
2023/07/12 13:47:43;;;;;;;55.63;1.70;;;;;;;;;;4992470;28;20977;-70
2023/07/12 13:50:14;;;;;;;55.70;1.93;;;;;;;;;;4992060;28;20451;-70
2023/07/12 13:52:41;;;;;;;55.37;1.80;;;;;;;;;;4992268;28;20477;-70
2023/07/12 13:55:09;;;;;;;55.50;1.97;;;;;;;;;;4992090;28;20459;-70
2023/07/12 13:57:36;;;;;;;55.40;1.83;;;;;;;;;;4992052;28;20830;-70
2023/07/12 14:00:11;;;;;;;55.40;2.57;;;;;;;;;;4991944;28;20461;-70
2023/07/12 14:02:38;;;;;;;55.10;1.57;;;;;;;;;;4991907;28;20541;-70
2023/07/12 14:05:06;;;;;;;54.90;1.70;;;;;;;;;;4992295;28;20455;-70
2023/07/12 14:07:35;;;;;;;55.50;2.17;;;;;;;;;;4991729;28;20955;-71
2023/07/12 14:10:02;;;;;;;55.53;2.10;;;;;;;;;;4992108;28;20465;-70
2023/07/12 14:12:31;;;;;;;55.07;1.80;;;;;;;;;;4991884;28;20471;-70
2023/07/12 14:14:58;;;;;;;55.70;1.60;;;;;;;;;;4992005;28;20451;-71
2023/07/12 14:17:29;;;;;;;54.73;1.93;;;;;;;;;;4991866;28;20447;-70
2023/07/12 14:19:57;;;;;;;54.77;1.50;;;;;;;;;;4991854;28;20951;-70
2023/07/12 14:22:26;;;;;;;55.00;1.60;;;;;;;;;;4991394;28;20508;-69
2023/07/12 14:24:55;;;;;;;55.27;1.80;;;;;;;;;;4991998;28;20772;-70
2023/07/12 14:27:25;;;;;;;55.40;1.80;;;;;;;;;;4991658;28;20481;-70
2023/07/12 14:29:52;;;;;;;55.60;1.70;;;;;;;;;;4991653;28;20458;-69
2023/07/12 14:32:20;;;;;;;55.73;1.90;;;;;;;;;;4991514;28;20473;-70
2023/07/12 14:34:49;;;;;;;56.10;2.10;;;;;;;;;;4991677;28;20454;-70
2023/07/12 14:37:18;;;;;;;55.47;1.77;;;;;;;;;;4991608;28;21166;-70
2023/07/12 14:39:45;;;;;;;55.83;1.97;;;;;;;;;;4991530;28;20458;-70